Time;durP1;ratioP1;P1;durP2;ratioP2;P2;SDS_P1;SDS_P2;PMS_P1;PMS_P2;Temp;Humidity;BMP_temperature;BMP_pressure;BME280_temperature;BME280_humidity;BME280_pressure;Samples;Min_cycle;Max_cycle;Signal;HPM_P1;HPM_P2
2021/06/04 00:02:25;;;;;;;17.70;16.67;;;17.90;99.90;;;;;;4956843;28;20460;-68
2021/06/04 00:04:52;;;;;;;18.33;17.13;;;17.90;99.90;;;;;;4956766;28;20456;-68
2021/06/04 00:07:18;;;;;;;17.17;16.27;;;17.90;99.90;;;;;;4956537;28;20526;-67
2021/06/04 00:09:44;;;;;;;17.03;16.03;;;17.90;99.90;;;;;;4956368;28;20464;-68
2021/06/04 00:12:10;;;;;;;16.20;15.40;;;17.90;99.90;;;;;;4956734;28;20548;-68
2021/06/04 00:14:39;;;;;;;16.20;15.27;;;17.90;99.90;;;;;;4956603;28;20452;-68
2021/06/04 00:17:11;;;;;;;17.23;16.23;;;17.90;99.90;;;;;;4956162;28;20904;-68
2021/06/04 00:19:38;;;;;;;17.40;16.30;;;17.90;99.90;;;;;;4956416;29;20456;-68
2021/06/04 00:22:07;;;;;;;17.67;16.67;;;17.80;99.90;;;;;;4956126;28;20679;-69
2021/06/04 00:24:34;;;;;;;17.30;16.20;;;17.80;99.90;;;;;;4954950;29;20468;-68
2021/06/04 00:27:00;;;;;;;17.70;16.80;;;17.80;99.90;;;;;;4954592;28;20543;-68
2021/06/04 00:29:26;;;;;;;19.13;17.70;;;17.80;99.90;;;;;;4955148;28;20448;-68
2021/06/04 00:31:54;;;;;;;17.53;16.57;;;17.80;99.90;;;;;;4954888;28;20459;-68
2021/06/04 00:34:22;;;;;;;17.73;16.70;;;17.70;99.90;;;;;;4955158;29;20461;-68
2021/06/04 00:36:48;;;;;;;16.83;15.93;;;17.70;99.90;;;;;;4954900;29;20500;-68
2021/06/04 00:39:17;;;;;;;17.27;16.27;;;17.70;99.90;;;;;;4954851;28;20460;-68
2021/06/04 00:41:47;;;;;;;16.50;15.33;;;17.70;99.90;;;;;;4954778;28;20464;-68
2021/06/04 00:44:14;;;;;;;18.00;16.97;;;17.60;99.90;;;;;;4954634;28;20514;-68
2021/06/04 00:46:41;;;;;;;15.73;14.90;;;17.60;99.90;;;;;;4954727;28;20508;-68
2021/06/04 00:49:07;;;;;;;16.53;15.63;;;17.60;99.90;;;;;;4954710;28;20887;-68
2021/06/04 00:51:38;;;;;;;16.73;15.63;;;17.60;99.90;;;;;;4954689;29;20456;-68
2021/06/04 00:54:08;;;;;;;18.27;17.33;;;17.50;99.90;;;;;;4954844;29;20444;-69
2021/06/04 00:56:35;;;;;;;18.33;17.17;;;17.50;99.90;;;;;;4954618;28;20452;-68
2021/06/04 00:59:02;;;;;;;18.40;17.17;;;17.50;99.90;;;;;;4954540;28;20457;-68
2021/06/04 01:01:30;;;;;;;18.10;17.10;;;17.50;99.90;;;;;;4954355;28;20452;-68
2021/06/04 01:03:59;;;;;;;17.93;16.60;;;17.40;99.90;;;;;;4953400;28;20527;-68
2021/06/04 01:06:31;;;;;;;18.80;17.50;;;17.40;99.90;;;;;;4954438;28;21044;-68
2021/06/04 01:09:15;;;;;;;19.40;17.73;;;17.40;99.90;;;;;;4954467;29;20448;-68
2021/06/04 01:11:53;;;;;;;18.47;17.53;;;17.40;99.90;;;;;;4954532;28;20453;-69
2021/06/04 01:14:28;;;;;;;20.77;19.57;;;17.40;99.90;;;;;;4954409;28;20469;-67
2021/06/04 04:29:29;;;;;;;20.80;19.60;;;18.40;99.90;;;;;;5888621;23;543755;-68
2021/06/04 04:31:58;;;;;;;18.73;17.73;;;18.70;99.90;;;;;;4943321;29;20482;-68
2021/06/04 04:34:26;;;;;;;18.90;17.90;;;19.00;99.90;;;;;;4940221;29;20461;-68
2021/06/04 04:36:56;;;;;;;19.83;18.73;;;19.40;99.90;;;;;;4933437;29;20977;-68
2021/06/04 04:39:25;;;;;;;18.50;17.50;;;19.70;99.90;;;;;;4936664;29;20461;-69
2021/06/04 04:41:51;;;;;;;18.97;17.97;;;19.70;99.90;;;;;;4936218;29;20480;-68
2021/06/04 04:44:21;;;;;;;19.87;18.67;;;19.60;99.90;;;;;;4936156;29;20461;-68
2021/06/04 04:46:49;;;;;;;20.40;19.03;;;19.60;99.90;;;;;;4936465;29;20488;-68
2021/06/04 04:49:15;;;;;;;21.40;20.00;;;19.50;99.90;;;;;;4936473;29;20453;-67
2021/06/04 04:51:41;;;;;;;19.57;18.47;;;19.70;99.90;;;;;;4936268;29;20453;-68
2021/06/04 04:54:09;;;;;;;20.00;18.90;;;20.10;99.90;;;;;;4936156;29;20454;-69
2021/06/04 04:56:36;;;;;;;19.90;18.80;;;20.30;99.90;;;;;;4936204;29;20445;-68
2021/06/04 04:59:04;;;;;;;18.67;17.53;;;20.40;99.90;;;;;;4936197;29;20569;-67
2021/06/04 05:01:31;;;;;;;18.37;17.47;;;20.40;99.90;;;;;;4936364;29;20464;-68
2021/06/04 05:03:58;;;;;;;19.53;18.43;;;20.20;99.90;;;;;;4936179;29;20445;-67
2021/06/04 05:06:24;;;;;;;18.80;17.87;;;20.00;99.90;;;;;;4935870;29;20488;-68
2021/06/04 05:08:51;;;;;;;20.73;19.63;;;19.80;99.90;;;;;;4935743;29;20469;-67
2021/06/04 05:11:18;;;;;;;19.23;18.13;;;19.70;99.90;;;;;;4936329;29;20468;-67
2021/06/04 05:13:44;;;;;;;20.03;18.87;;;19.70;99.90;;;;;;4936310;29;20449;-68
2021/06/04 05:16:10;;;;;;;20.43;19.30;;;19.50;99.90;;;;;;4935775;29;20449;-68
2021/06/04 05:18:38;;;;;;;18.47;17.47;;;19.50;99.90;;;;;;4936049;29;20846;-68
2021/06/04 05:21:08;;;;;;;19.83;18.37;;;19.60;99.90;;;;;;4935486;29;20458;-68
2021/06/04 05:23:34;;;;;;;21.80;19.93;;;19.70;99.90;;;;;;4935558;29;20943;-69
2021/06/04 05:26:01;;;;;;;19.00;17.90;;;19.70;99.90;;;;;;4935721;29;20450;-70
2021/06/04 05:28:29;;;;;;;18.77;17.67;;;19.60;99.90;;;;;;4935673;29;20480;-69
2021/06/04 05:31:00;;;;;;;18.90;17.93;;;19.60;99.90;;;;;;4934988;29;20477;-68
2021/06/04 05:33:32;;;;;;;20.00;18.80;;;19.70;99.90;;;;;;4935720;29;20468;-68
2021/06/04 05:35:59;;;;;;;19.73;18.57;;;19.90;99.90;;;;;;4935659;29;20821;-68
2021/06/04 05:38:28;;;;;;;20.03;18.83;;;20.20;99.90;;;;;;4935556;29;20821;-68
2021/06/04 05:40:55;;;;;;;19.60;18.37;;;20.40;99.90;;;;;;4935315;29;20520;-68
2021/06/04 05:43:24;;;;;;;19.07;17.97;;;20.30;99.90;;;;;;4935338;29;20552;-68
2021/06/04 05:45:51;;;;;;;20.43;19.23;;;20.40;99.90;;;;;;4935013;29;20449;-68
2021/06/04 05:48:19;;;;;;;18.90;17.80;;;20.50;99.90;;;;;;4934968;29;20889;-68
2021/06/04 05:50:48;;;;;;;20.40;18.93;;;20.50;99.90;;;;;;4934994;29;20516;-68
2021/06/04 05:53:17;;;;;;;20.70;19.60;;;20.50;99.90;;;;;;4935238;29;20449;-68
2021/06/04 05:55:44;;;;;;;21.20;20.00;;;20.60;99.90;;;;;;4935346;29;20520;-68
2021/06/04 05:58:14;;;;;;;20.23;18.83;;;20.80;99.90;;;;;;4934956;29;20453;-68
2021/06/04 06:00:44;;;;;;;20.30;19.20;;;21.30;99.90;;;;;;4934985;29;20465;-68
2021/06/04 06:03:13;;;;;;;19.67;18.47;;;21.80;99.90;;;;;;4935012;29;20831;-68
2021/06/04 06:05:39;;;;;;;19.00;17.73;;;22.40;99.90;;;;;;4934764;29;20461;-67
2021/06/04 06:08:06;;;;;;;19.60;18.30;;;23.10;99.90;;;;;;4934534;29;20568;-68
2021/06/04 06:10:32;;;;;;;18.73;17.53;;;23.80;99.90;;;;;;4934869;29;20454;-68
2021/06/04 06:13:00;;;;;;;17.90;17.00;;;24.10;99.90;;;;;;4934985;29;20454;-69
2021/06/04 06:15:28;;;;;;;18.90;17.93;;;24.60;99.90;;;;;;4932797;29;20509;-69
2021/06/04 06:17:55;;;;;;;17.47;16.67;;;24.60;99.90;;;;;;4934526;29;20485;-69
2021/06/04 06:20:31;;;;;;;17.87;16.87;;;24.90;99.90;;;;;;4934091;29;20465;-69
2021/06/04 06:22:59;;;;;;;18.50;17.40;;;25.00;99.90;;;;;;4934643;29;20509;-70
2021/06/04 06:25:29;;;;;;;16.53;15.73;;;25.00;99.90;;;;;;4934441;29;20457;-69
2021/06/04 06:27:57;;;;;;;17.97;16.83;;;25.00;99.90;;;;;;4934197;29;20922;-70
2021/06/04 06:30:28;;;;;;;17.37;16.40;;;25.20;99.90;;;;;;4934082;29;20493;-70
2021/06/04 06:32:54;;;;;;;17.20;16.40;;;26.20;99.90;;;;;;4934281;29;20454;-70
2021/06/04 06:35:26;;;;;;;17.50;16.63;;;27.00;99.90;;;;;;4933898;29;20476;-71
2021/06/04 06:37:53;;;;;;;15.37;14.77;;;27.70;99.90;;;;;;4934242;29;20437;-71
2021/06/04 06:40:19;;;;;;;16.17;15.57;;;28.80;98.50;;;;;;4933979;29;20457;-71
2021/06/04 06:42:45;;;;;;;16.37;15.57;;;29.40;96.50;;;;;;4934076;29;20458;-70
2021/06/04 06:45:13;;;;;;;16.40;15.70;;;30.00;95.80;;;;;;4933713;29;20450;-71
2021/06/04 06:47:41;;;;;;;17.47;16.57;;;31.00;93.80;;;;;;4934018;29;20501;-71
2021/06/04 06:50:10;;;;;;;16.97;16.17;;;31.50;92.60;;;;;;4933980;29;20453;-71
2021/06/04 06:52:37;;;;;;;17.50;16.60;;;31.30;92.10;;;;;;4933671;29;20461;-70
2021/06/04 06:55:06;;;;;;;17.80;17.00;;;31.10;92.10;;;;;;4934045;29;20532;-71
2021/06/04 06:57:33;;;;;;;16.93;16.13;;;31.20;91.70;;;;;;4934351;29;20797;-70
2021/06/04 06:59:59;;;;;;;16.43;15.67;;;30.70;91.90;;;;;;4933885;29;20489;-70
2021/06/04 07:02:25;;;;;;;16.50;15.60;;;30.70;91.90;;;;;;4933016;29;20489;-70
2021/06/04 07:04:53;;;;;;;15.50;14.90;;;30.40;91.90;;;;;;4933784;29;20536;-70
2021/06/04 07:07:20;;;;;;;15.73;14.83;;;30.10;93.00;;;;;;4933679;29;20524;-70
2021/06/04 07:09:47;;;;;;;15.33;14.63;;;30.00;92.50;;;;;;4933679;29;20464;-70
2021/06/04 07:12:14;;;;;;;16.03;15.33;;;29.80;92.10;;;;;;4933627;29;20460;-70
2021/06/04 07:14:40;;;;;;;16.07;15.20;;;29.40;93.00;;;;;;4933391;29;20465;-70
2021/06/04 07:17:07;;;;;;;16.90;16.07;;;29.10;93.20;;;;;;4933536;29;20445;-70
2021/06/04 07:19:35;;;;;;;16.23;15.33;;;28.80;93.30;;;;;;4933857;29;20480;-70
2021/06/04 07:22:06;;;;;;;16.43;15.40;;;28.90;93.10;;;;;;4933664;29;20464;-70
2021/06/04 07:24:33;;;;;;;16.63;15.30;;;28.90;92.70;;;;;;4933579;29;21194;-70
2021/06/04 07:27:00;;;;;;;14.50;13.90;;;28.70;93.70;;;;;;4933417;29;20486;-70
2021/06/04 07:29:28;;;;;;;14.43;13.83;;;28.50;93.60;;;;;;4933159;29;20478;-70
2021/06/04 07:31:56;;;;;;;14.53;13.73;;;28.50;93.10;;;;;;4933493;29;20469;-70
2021/06/04 07:34:23;;;;;;;14.63;14.00;;;28.60;92.90;;;;;;4933272;29;20970;-70
2021/06/04 07:36:53;;;;;;;15.20;14.60;;;28.70;92.80;;;;;;4933553;29;20457;-70
2021/06/04 07:39:24;;;;;;;14.40;13.80;;;28.70;92.80;;;;;;4933642;29;20457;-70
2021/06/04 07:41:51;;;;;;;13.90;13.30;;;28.50;93.70;;;;;;4933439;29;20462;-70
2021/06/04 07:44:17;;;;;;;15.30;14.60;;;28.40;93.30;;;;;;4933752;29;20458;-70
2021/06/04 07:46:46;;;;;;;14.33;13.57;;;28.40;93.50;;;;;;4933902;29;20576;-70
2021/06/04 07:49:13;;;;;;;14.60;13.80;;;28.80;93.20;;;;;;4933430;29;20472;-71
2021/06/04 07:51:42;;;;;;;14.70;13.80;;;29.20;92.10;;;;;;4933295;29;20457;-71
2021/06/04 07:54:11;;;;;;;15.20;14.40;;;29.80;91.30;;;;;;4933437;29;20573;-70
2021/06/04 07:56:39;;;;;;;15.20;14.47;;;30.10;91.00;;;;;;4933488;29;20569;-71
2021/06/04 07:59:06;;;;;;;15.37;14.53;;;30.70;89.80;;;;;;4932918;29;20450;-71
2021/06/04 08:01:33;;;;;;;15.40;14.80;;;31.20;87.90;;;;;;4933431;29;20509;-70
2021/06/04 08:04:01;;;;;;;16.17;15.10;;;31.40;87.90;;;;;;4933500;29;20449;-71
2021/06/04 08:06:27;;;;;;;16.17;15.30;;;32.10;85.30;;;;;;4933245;29;20494;-71
2021/06/04 08:08:55;;;;;;;16.10;15.40;;;32.60;82.90;;;;;;4933167;29;20457;-71
2021/06/04 08:11:27;;;;;;;14.90;14.30;;;32.90;80.10;;;;;;4933082;29;20838;-71
2021/06/04 08:13:56;;;;;;;16.43;15.83;;;33.90;76.10;;;;;;4937059;29;20483;-71
2021/06/04 08:16:23;;;;;;;16.67;15.47;;;34.60;73.70;;;;;;4937003;29;20461;-70
2021/06/04 08:18:50;;;;;;;16.70;15.53;;;35.20;70.50;;;;;;4936935;29;20958;-70
2021/06/04 08:21:20;;;;;;;16.63;15.73;;;34.80;69.70;;;;;;4937054;29;20457;-71
2021/06/04 08:23:46;;;;;;;15.30;14.30;;;34.80;69.00;;;;;;4937121;29;20453;-71
2021/06/04 08:26:15;;;;;;;15.40;14.77;;;34.80;69.20;;;;;;4936747;29;20461;-71
2021/06/04 08:28:42;;;;;;;14.70;14.20;;;35.00;67.20;;;;;;4936675;29;20477;-71
2021/06/04 08:31:10;;;;;;;16.33;15.43;;;34.90;67.40;;;;;;4936574;29;20495;-71
2021/06/04 08:33:38;;;;;;;15.87;15.03;;;35.40;66.70;;;;;;4936495;29;20453;-71
2021/06/04 08:36:07;;;;;;;14.80;14.10;;;35.30;66.40;;;;;;4936483;29;20453;-72
2021/06/04 08:38:38;;;;;;;15.50;14.70;;;35.40;65.10;;;;;;4936755;29;20446;-71
2021/06/04 08:41:11;;;;;;;16.20;15.50;;;35.40;64.80;;;;;;4936484;29;20489;-71
2021/06/04 08:43:50;;;;;;;16.40;15.60;;;35.50;64.20;;;;;;4936639;29;20623;-71
2021/06/04 08:46:23;;;;;;;16.20;15.30;;;34.70;65.80;;;;;;4936318;29;20547;-70
2021/06/04 08:48:53;;;;;;;15.67;14.97;;;34.70;66.70;;;;;;4936480;29;20453;-71
2021/06/04 08:51:31;;;;;;;16.00;15.30;;;35.20;65.80;;;;;;4936336;29;20462;-71
2021/06/04 08:54:29;;;;;;;15.70;15.00;;;36.10;63.30;;;;;;4936344;29;21002;-71
2021/06/04 08:56:59;;;;;;;16.63;15.83;;;35.90;62.50;;;;;;4936381;29;20520;-71
2021/06/04 08:59:27;;;;;;;15.90;15.20;;;35.30;64.50;;;;;;4936102;29;20467;-71
2021/06/04 09:01:58;;;;;;;16.33;15.53;;;35.30;64.20;;;;;;4936119;29;20521;-71
2021/06/04 09:04:28;;;;;;;17.97;17.23;;;35.60;63.50;;;;;;4936028;29;20457;-71
2021/06/04 09:07:00;;;;;;;16.10;15.30;;;35.80;63.60;;;;;;4935730;29;20489;-71
2021/06/04 09:09:34;;;;;;;17.53;16.63;;;36.10;62.40;;;;;;4935656;29;20816;-71
2021/06/04 09:12:05;;;;;;;15.63;14.97;;;36.50;62.50;;;;;;4936361;29;20438;-71
2021/06/04 09:14:31;;;;;;;17.17;16.20;;;37.30;59.00;;;;;;4936057;29;20456;-71
2021/06/04 09:17:14;;;;;;;16.80;16.10;;;37.10;59.60;;;;;;4935814;29;20445;-71
2021/06/04 09:19:55;;;;;;;16.90;16.30;;;36.20;60.20;;;;;;4935611;29;21007;-71
2021/06/04 09:22:36;;;;;;;18.37;17.37;;;36.10;61.10;;;;;;4935718;29;20453;-71
2021/06/04 09:25:04;;;;;;;16.50;15.80;;;35.80;62.80;;;;;;4935097;29;20453;-71
2021/06/04 09:27:33;;;;;;;17.07;16.17;;;36.60;59.60;;;;;;4936126;29;20489;-72
2021/06/04 09:30:14;;;;;;;16.83;16.23;;;36.70;59.50;;;;;;4935624;29;20489;-71
2021/06/04 09:32:58;;;;;;;16.90;16.10;;;36.70;58.40;;;;;;4938383;29;20487;-71
2021/06/04 09:35:24;;;;;;;17.03;16.13;;;37.50;58.00;;;;;;4943940;29;20456;-71
2021/06/04 09:37:50;;;;;;;16.50;15.80;;;37.10;59.30;;;;;;4948401;29;20449;-71
2021/06/04 09:40:22;;;;;;;17.10;16.40;;;37.30;58.60;;;;;;4955079;28;20456;-72
2021/06/04 09:43:10;;;;;;;16.80;15.93;;;37.60;58.50;;;;;;4936082;29;20472;-71
2021/06/04 09:45:40;;;;;;;16.90;16.10;;;37.40;58.30;;;;;;4935487;29;20558;-71
2021/06/04 09:48:13;;;;;;;15.90;15.20;;;36.30;60.80;;;;;;4935686;29;20592;-71
2021/06/04 09:50:42;;;;;;;16.13;15.43;;;35.40;63.70;;;;;;4948675;29;20480;-71
2021/06/04 09:53:13;;;;;;;17.07;16.37;;;35.10;65.10;;;;;;4954723;29;20825;-71
2021/06/04 09:55:41;;;;;;;18.60;17.60;;;35.70;64.00;;;;;;4954802;29;20453;-71
2021/06/04 09:58:27;;;;;;;17.63;16.63;;;35.50;63.70;;;;;;4954507;28;20874;-71
2021/06/04 10:01:10;;;;;;;16.47;15.47;;;35.70;63.20;;;;;;4954400;29;20441;-71
2021/06/04 10:03:47;;;;;;;18.17;17.30;;;35.80;61.70;;;;;;4954302;29;20456;-71
2021/06/04 10:06:30;;;;;;;17.87;16.87;;;35.10;64.20;;;;;;4953137;29;20456;-71
2021/06/04 10:08:59;;;;;;;17.57;16.87;;;35.20;65.00;;;;;;4935361;29;20782;-71
2021/06/04 10:11:28;;;;;;;16.50;15.67;;;35.50;64.90;;;;;;4934999;29;20544;-71
2021/06/04 10:14:00;;;;;;;16.50;15.80;;;35.40;65.30;;;;;;4934855;29;20830;-71
2021/06/04 10:16:58;;;;;;;16.83;16.07;;;35.30;64.00;;;;;;4934910;29;20458;-71
2021/06/04 10:19:33;;;;;;;16.67;15.97;;;34.70;64.40;;;;;;4934863;29;20460;-71
2021/06/04 10:22:17;;;;;;;17.03;16.13;;;33.90;66.00;;;;;;4935043;29;20460;-71
2021/06/04 10:24:48;;;;;;;18.30;16.97;;;34.70;64.50;;;;;;4935047;29;20777;-71
2021/06/04 10:27:18;;;;;;;15.90;15.30;;;36.10;62.50;;;;;;4935069;29;20481;-71
2021/06/04 10:29:57;;;;;;;16.80;16.03;;;36.20;61.70;;;;;;4934171;29;20485;-71
2021/06/04 10:32:25;;;;;;;16.77;15.93;;;36.50;61.60;;;;;;4934284;29;20566;-71
2021/06/04 10:35:17;;;;;;;17.90;17.20;;;37.30;59.20;;;;;;4933997;29;20468;-72
2021/06/04 10:37:48;;;;;;;17.70;16.77;;;38.10;56.70;;;;;;4929724;29;20473;-72
2021/06/04 10:40:21;;;;;;;18.20;17.20;;;38.00;57.10;;;;;;4934330;29;20453;-72
2021/06/04 10:43:05;;;;;;;18.60;17.80;;;38.20;56.20;;;;;;4953270;29;20448;-71
2021/06/04 10:45:34;;;;;;;17.70;16.90;;;38.00;56.00;;;;;;4953308;29;20464;-71
2021/06/04 10:48:38;;;;;;;18.87;17.87;;;37.50;56.80;;;;;;4951350;28;20837;-71
2021/06/04 10:51:18;;;;;;;18.27;17.30;;;36.40;58.20;;;;;;4952473;29;20785;-70
2021/06/04 10:53:51;;;;;;;16.00;15.30;;;34.00;62.10;;;;;;4953352;29;20456;-71
2021/06/04 10:56:20;;;;;;;16.10;15.30;;;33.30;65.10;;;;;;4953127;29;20457;-70
2021/06/04 10:58:54;;;;;;;18.00;17.00;;;32.40;68.30;;;;;;4953063;29;20532;-72
2021/06/04 11:01:28;;;;;;;22.00;20.50;;;31.80;71.70;;;;;;4952732;29;20492;-72
2021/06/04 11:04:00;;;;;;;34.20;32.30;;;30.80;91.30;;;;;;4953017;29;20452;-72
2021/06/04 11:06:34;;;;;;;36.60;34.60;;;28.60;97.30;;;;;;4952918;29;20463;-74
2021/06/04 11:09:15;;;;;;;38.47;35.97;;;26.70;99.90;;;;;;4953326;29;20835;-74
2021/06/04 11:11:55;;;;;;;40.77;38.33;;;25.10;99.90;;;;;;4952756;29;20460;-73
2021/06/04 11:14:44;;;;;;;43.60;40.90;;;23.80;99.90;;;;;;4953074;29;20479;-73
2021/06/04 11:17:21;;;;;;;42.10;39.90;;;22.90;99.90;;;;;;4940490;29;20456;-73
2021/06/04 11:19:51;;;;;;;40.80;38.60;;;22.40;99.90;;;;;;4952684;29;20537;-73
2021/06/04 11:22:22;;;;;;;44.70;42.20;;;21.80;99.90;;;;;;4952602;29;20458;-72
2021/06/04 11:24:54;;;;;;;46.03;43.13;;;21.50;99.90;;;;;;4952525;29;20795;-73
2021/06/04 11:27:26;;;;;;;46.53;43.13;;;21.30;99.90;;;;;;4952450;29;20495;-73
2021/06/04 11:29:54;;;;;;;44.37;41.67;;;21.40;99.90;;;;;;4952320;28;20492;-72
2021/06/04 11:32:23;;;;;;;44.33;41.67;;;21.50;99.90;;;;;;4952475;29;20452;-72
2021/06/04 11:34:55;;;;;;;46.30;42.80;;;21.60;99.90;;;;;;4952537;29;20453;-72
2021/06/04 11:37:30;;;;;;;46.67;43.17;;;21.60;99.90;;;;;;4952281;29;20460;-72
2021/06/04 11:40:08;;;;;;;46.90;44.10;;;21.40;99.90;;;;;;4953061;29;20482;-73
2021/06/04 11:42:47;;;;;;;41.40;39.20;;;21.20;99.90;;;;;;4933738;29;20480;-72
2021/06/04 11:45:15;;;;;;;42.50;40.03;;;21.00;99.90;;;;;;4933349;29;21026;-72
2021/06/04 11:47:42;;;;;;;41.50;38.77;;;21.00;99.90;;;;;;4932486;29;20527;-72
2021/06/04 11:50:36;;;;;;;40.83;38.53;;;20.90;99.90;;;;;;4933329;29;20468;-72
2021/06/04 11:53:31;;;;;;;38.93;36.93;;;20.90;99.90;;;;;;4933502;29;20921;-72
2021/06/04 11:55:58;;;;;;;33.80;32.00;;;21.00;99.90;;;;;;4933304;29;20543;-72
2021/06/04 11:58:50;;;;;;;33.17;31.47;;;21.10;99.90;;;;;;4932608;29;20454;-72
2021/06/04 12:01:40;;;;;;;28.07;26.80;;;21.40;99.90;;;;;;4933304;29;20876;-71
2021/06/04 12:04:13;;;;;;;29.60;28.20;;;21.70;99.90;;;;;;4932612;29;20462;-71
2021/06/04 12:06:56;;;;;;;28.13;26.43;;;22.00;99.90;;;;;;4932888;29;20939;-72
2021/06/04 12:09:48;;;;;;;25.47;24.20;;;22.30;99.90;;;;;;4932858;29;20454;-71
2021/06/04 12:12:52;;;;;;;23.77;22.37;;;22.40;99.90;;;;;;4933425;29;20445;-72
2021/06/04 12:15:48;;;;;;;21.50;20.40;;;22.70;99.90;;;;;;4933473;29;20434;-71
2021/06/04 12:18:58;;;;;;;20.80;19.60;;;23.00;99.90;;;;;;4933352;29;20801;-71
2021/06/04 12:22:07;;;;;;;18.20;17.40;;;23.10;99.90;;;;;;4933116;29;20797;-71
2021/06/04 12:24:53;;;;;;;19.47;18.27;;;23.20;99.90;;;;;;4933281;29;20496;-71
2021/06/04 12:27:55;;;;;;;18.37;17.57;;;23.40;99.90;;;;;;4932941;29;20999;-71
2021/06/04 12:30:45;;;;;;;18.70;17.90;;;23.70;99.90;;;;;;4908544;29;20476;-71
2021/06/04 12:33:12;;;;;;;20.40;19.13;;;24.30;99.90;;;;;;4932761;29;20442;-71
2021/06/04 12:35:42;;;;;;;19.00;17.60;;;24.40;99.90;;;;;;4932895;29;20456;-71
2021/06/04 12:38:25;;;;;;;20.63;19.07;;;24.80;99.90;;;;;;4932629;29;20627;-71
2021/06/04 12:40:54;;;;;;;20.17;18.97;;;25.00;99.90;;;;;;4938285;29;20810;-71
2021/06/04 12:43:23;;;;;;;19.77;18.67;;;25.50;99.90;;;;;;4951810;29;20456;-72
2021/06/04 12:46:00;;;;;;;18.67;17.77;;;25.50;99.90;;;;;;4952078;29;20457;-71
2021/06/04 12:48:29;;;;;;;18.03;16.83;;;25.30;99.90;;;;;;4951746;29;20492;-70
2021/06/04 12:51:15;;;;;;;18.60;17.60;;;24.80;99.90;;;;;;4951797;28;20460;-70
2021/06/04 12:53:44;;;;;;;18.20;17.30;;;24.80;99.90;;;;;;4951792;29;20460;-70
2021/06/04 12:56:18;;;;;;;18.87;17.80;;;24.70;99.90;;;;;;4951775;29;20460;-70
2021/06/04 12:58:48;;;;;;;18.60;17.50;;;25.00;99.90;;;;;;4952141;28;20453;-69
2021/06/04 13:01:18;;;;;;;21.60;20.63;;;25.00;99.90;;;;;;4955721;28;20445;-71
2021/06/04 13:03:46;;;;;;;29.17;27.77;;;25.10;99.90;;;;;;4955348;29;20437;-72
2021/06/04 13:06:22;;;;;;;32.10;30.30;;;24.80;99.90;;;;;;4955441;28;20467;-72
2021/06/04 13:08:48;;;;;;;32.63;30.93;;;24.30;99.90;;;;;;4955023;29;20488;-72
2021/06/04 13:11:36;;;;;;;34.47;32.73;;;24.00;99.90;;;;;;4955486;29;20460;-72
2021/06/04 13:14:17;;;;;;;35.07;33.37;;;23.80;99.90;;;;;;4955357;29;20815;-72
2021/06/04 13:16:43;;;;;;;32.37;30.87;;;23.80;99.90;;;;;;4955071;29;20827;-71
2021/06/04 13:19:13;;;;;;;28.07;26.67;;;24.00;99.90;;;;;;4955051;29;20453;-71
2021/06/04 13:21:42;;;;;;;23.83;22.83;;;24.30;99.90;;;;;;4954762;29;20460;-71
2021/06/04 13:24:15;;;;;;;22.53;21.50;;;24.60;99.90;;;;;;4954817;29;20460;-72
2021/06/04 13:26:44;;;;;;;21.57;20.33;;;25.20;99.90;;;;;;4954719;29;20935;-72
2021/06/04 13:29:22;;;;;;;19.57;18.47;;;26.00;99.90;;;;;;4954548;29;20468;-72
2021/06/04 13:31:48;;;;;;;19.97;18.87;;;26.80;99.90;;;;;;4954438;29;20486;-72
2021/06/04 13:34:19;;;;;;;20.03;19.00;;;27.50;99.90;;;;;;4954719;29;20452;-72
2021/06/04 13:36:46;;;;;;;19.80;18.70;;;27.60;99.90;;;;;;4954787;29;20892;-72
2021/06/04 13:39:18;;;;;;;19.37;18.47;;;27.30;99.90;;;;;;4954716;29;20468;-72
2021/06/04 13:41:49;;;;;;;20.30;19.30;;;27.50;99.90;;;;;;4942760;29;20899;-73
2021/06/04 13:44:19;;;;;;;19.80;18.60;;;27.60;99.90;;;;;;4935836;29;20461;-72
2021/06/04 13:46:55;;;;;;;21.07;19.73;;;27.50;99.90;;;;;;4933705;29;20465;-73
2021/06/04 13:49:34;;;;;;;20.07;18.93;;;27.10;99.90;;;;;;4935046;29;20442;-71
2021/06/04 13:52:03;;;;;;;19.23;18.00;;;26.90;99.90;;;;;;4935479;29;20461;-72
2021/06/04 13:54:32;;;;;;;19.23;18.00;;;26.60;99.90;;;;;;4935452;29;20457;-72
2021/06/04 13:57:18;;;;;;;20.20;18.80;;;26.70;99.90;;;;;;4934946;29;20456;-71
2021/06/04 13:59:44;;;;;;;19.37;18.27;;;26.70;99.90;;;;;;4935168;29;20811;-72
2021/06/04 14:02:30;;;;;;;18.57;17.37;;;26.60;99.90;;;;;;4941723;28;20486;-72
2021/06/04 14:04:59;;;;;;;19.23;18.00;;;26.50;99.90;;;;;;4952798;29;20444;-71
2021/06/04 14:07:39;;;;;;;18.83;17.60;;;26.50;99.90;;;;;;4954109;29;20491;-71
2021/06/04 14:10:31;;;;;;;19.37;18.27;;;26.40;99.90;;;;;;4953811;28;20816;-71
2021/06/04 14:13:06;;;;;;;18.40;17.50;;;26.10;99.90;;;;;;4954373;29;20495;-71
2021/06/04 14:15:43;;;;;;;19.30;18.30;;;26.00;99.90;;;;;;4954350;29;20459;-71
2021/06/04 14:18:34;;;;;;;19.37;18.27;;;26.00;99.90;;;;;;4953221;29;20429;-71
2021/06/04 14:21:43;;;;;;;19.10;18.00;;;26.10;99.90;;;;;;4954182;29;20449;-71
2021/06/04 14:24:35;;;;;;;19.20;17.93;;;26.10;99.90;;;;;;4953641;29;20480;-70
2021/06/04 14:27:03;;;;;;;20.00;18.50;;;25.90;99.90;;;;;;4953466;29;20451;-71
2021/06/04 14:29:35;;;;;;;20.10;18.80;;;25.80;99.90;;;;;;4953568;29;20472;-70
2021/06/04 14:32:20;;;;;;;19.23;18.30;;;25.60;99.90;;;;;;4953741;29;20457;-70
2021/06/04 14:35:18;;;;;;;19.40;17.87;;;25.30;99.90;;;;;;4953938;29;20472;-70
2021/06/04 14:37:49;;;;;;;17.27;16.37;;;25.10;99.90;;;;;;4937219;29;20475;-70
2021/06/04 14:40:18;;;;;;;17.40;16.30;;;24.90;99.90;;;;;;4953178;29;21023;-69
2021/06/04 14:42:44;;;;;;;17.33;16.33;;;24.80;99.90;;;;;;4953718;28;20453;-70
2021/06/04 14:45:13;;;;;;;18.33;17.27;;;25.00;99.90;;;;;;4953406;29;20824;-70
2021/06/04 14:47:41;;;;;;;20.60;19.50;;;24.90;99.90;;;;;;4953040;29;20492;-69
2021/06/04 14:50:09;;;;;;;21.93;20.73;;;24.90;99.90;;;;;;4953183;29;20460;-70
2021/06/04 14:52:35;;;;;;;24.77;23.27;;;24.90;99.90;;;;;;4953253;29;20453;-70
2021/06/04 14:55:03;;;;;;;27.07;25.63;;;24.60;99.90;;;;;;4953245;29;20982;-71
2021/06/04 14:57:30;;;;;;;30.40;28.90;;;24.50;99.90;;;;;;4953380;29;20457;-72
2021/06/04 14:59:56;;;;;;;31.17;29.47;;;24.10;99.90;;;;;;4953124;29;20452;-73
2021/06/04 15:02:25;;;;;;;33.40;31.33;;;23.80;99.90;;;;;;4951795;28;20468;-72
2021/06/04 15:04:52;;;;;;;31.53;29.67;;;23.80;99.90;;;;;;4951282;28;20474;-72
2021/06/04 15:07:20;;;;;;;33.17;31.10;;;24.00;99.90;;;;;;4953159;28;20492;-71
2021/06/04 15:09:46;;;;;;;31.40;29.80;;;24.30;99.90;;;;;;4952945;28;20954;-71
2021/06/04 15:12:15;;;;;;;28.00;26.27;;;24.70;99.90;;;;;;4952865;29;20448;-71
2021/06/04 15:14:42;;;;;;;26.57;24.73;;;24.70;99.90;;;;;;4952943;29;21002;-71
2021/06/04 15:17:09;;;;;;;21.70;20.40;;;24.60;99.90;;;;;;4953223;28;20816;-71
2021/06/04 15:19:36;;;;;;;20.33;19.17;;;24.80;99.90;;;;;;4952914;29;20483;-72
2021/06/04 15:22:04;;;;;;;20.27;18.87;;;24.60;99.90;;;;;;4952130;28;20464;-73
2021/06/04 15:24:30;;;;;;;18.53;17.33;;;24.70;99.90;;;;;;4953141;29;20950;-73
2021/06/04 15:26:57;;;;;;;19.10;18.03;;;24.90;99.90;;;;;;4952951;29;20465;-72
2021/06/04 15:29:25;;;;;;;19.00;18.00;;;25.10;99.90;;;;;;4952526;28;20500;-72
2021/06/04 15:31:52;;;;;;;16.83;15.77;;;25.30;99.90;;;;;;4952564;28;20573;-73
2021/06/04 15:34:19;;;;;;;16.57;15.67;;;25.80;99.90;;;;;;4953206;28;20461;-72
2021/06/04 15:36:46;;;;;;;17.33;16.40;;;26.00;99.90;;;;;;4953418;29;20453;-72
2021/06/04 15:39:13;;;;;;;16.53;15.80;;;26.00;99.90;;;;;;4952843;28;20457;-71
2021/06/04 15:41:40;;;;;;;17.90;16.80;;;25.90;99.90;;;;;;4953060;29;20464;-71
2021/06/04 15:44:08;;;;;;;16.77;15.80;;;25.90;99.90;;;;;;4952988;28;20460;-71
2021/06/04 15:46:36;;;;;;;18.30;16.90;;;25.80;99.90;;;;;;4952867;29;20469;-70
2021/06/04 15:49:03;;;;;;;16.50;15.80;;;25.60;99.90;;;;;;4952989;29;20543;-70
2021/06/04 15:51:29;;;;;;;15.77;15.07;;;25.60;99.90;;;;;;4953204;29;20453;-70
2021/06/04 15:53:58;;;;;;;15.20;14.60;;;25.70;99.90;;;;;;4953002;29;20603;-70
2021/06/04 15:56:26;;;;;;;15.10;14.30;;;25.80;99.90;;;;;;4952887;28;20975;-70
2021/06/04 15:58:53;;;;;;;15.77;14.93;;;25.80;99.90;;;;;;4952583;28;20543;-69
2021/06/04 16:01:20;;;;;;;15.43;14.63;;;25.70;99.90;;;;;;4952597;29;20834;-70
2021/06/04 16:03:47;;;;;;;15.40;14.50;;;25.90;99.90;;;;;;4952411;29;20963;-70